sensor_id;sensor_type;location;lat;lon;timestamp;P1;durP1;ratioP1;P2;durP2;ratioP2
76380;SDS011;65202;52.520;10.528;2023-06-14T00:01:36;4.57;;;3.17;;
76380;SDS011;65202;52.520;10.528;2023-06-14T00:04:05;8.27;;;2.72;;
76380;SDS011;65202;52.520;10.528;2023-06-14T00:06:33;6.88;;;3.00;;
76380;SDS011;65202;52.520;10.528;2023-06-14T00:09:00;6.90;;;3.13;;
76380;SDS011;65202;52.520;10.528;2023-06-14T00:11:28;9.07;;;3.20;;
76380;SDS011;65202;52.520;10.528;2023-06-14T00:13:56;5.22;;;3.00;;
76380;SDS011;65202;52.520;10.528;2023-06-14T00:16:24;6.13;;;2.75;;
76380;SDS011;65202;52.520;10.528;2023-06-14T00:18:51;5.50;;;3.25;;
76380;SDS011;65202;52.520;10.528;2023-06-14T00:21:19;14.80;;;3.00;;
76380;SDS011;65202;52.520;10.528;2023-06-14T00:23:46;5.35;;;2.70;;
76380;SDS011;65202;52.520;10.528;2023-06-14T00:26:14;7.22;;;2.58;;
76380;SDS011;65202;52.520;10.528;2023-06-14T00:28:41;9.00;;;2.88;;
76380;SDS011;65202;52.520;10.528;2023-06-14T00:31:09;6.43;;;3.08;;
76380;SDS011;65202;52.520;10.528;2023-06-14T00:33:36;4.75;;;2.90;;
76380;SDS011;65202;52.520;10.528;2023-06-14T00:36:03;6.60;;;3.00;;
76380;SDS011;65202;52.520;10.528;2023-06-14T00:38:31;9.82;;;2.90;;
76380;SDS011;65202;52.520;10.528;2023-06-14T00:40:58;6.68;;;2.80;;
76380;SDS011;65202;52.520;10.528;2023-06-14T00:43:25;4.63;;;2.67;;
76380;SDS011;65202;52.520;10.528;2023-06-14T00:45:53;7.53;;;2.78;;
76380;SDS011;65202;52.520;10.528;2023-06-14T00:48:20;12.07;;;3.25;;
76380;SDS011;65202;52.520;10.528;2023-06-14T00:50:49;6.85;;;2.72;;
76380;SDS011;65202;52.520;10.528;2023-06-14T00:53:19;6.03;;;2.95;;
76380;SDS011;65202;52.520;10.528;2023-06-14T00:55:49;7.57;;;2.90;;
76380;SDS011;65202;52.520;10.528;2023-06-14T00:58:17;7.43;;;2.85;;
76380;SDS011;65202;52.520;10.528;2023-06-14T01:00:44;5.55;;;2.60;;
76380;SDS011;65202;52.520;10.528;2023-06-14T01:03:12;9.40;;;3.08;;
76380;SDS011;65202;52.520;10.528;2023-06-14T01:05:41;5.97;;;2.67;;
76380;SDS011;65202;52.520;10.528;2023-06-14T01:08:56;5.55;;;2.70;;
76380;SDS011;65202;52.520;10.528;2023-06-14T01:11:21;6.45;;;2.90;;
76380;SDS011;65202;52.520;10.528;2023-06-14T01:13:58;9.30;;;2.97;;
76380;SDS011;65202;52.520;10.528;2023-06-14T01:16:29;10.83;;;3.10;;
76380;SDS011;65202;52.520;10.528;2023-06-14T01:18:59;6.10;;;2.83;;
76380;SDS011;65202;52.520;10.528;2023-06-14T01:21:26;5.38;;;3.10;;
76380;SDS011;65202;52.520;10.528;2023-06-14T01:23:55;6.63;;;3.08;;
76380;SDS011;65202;52.520;10.528;2023-06-14T01:26:22;6.40;;;2.97;;
76380;SDS011;65202;52.520;10.528;2023-06-14T01:28:50;6.85;;;2.80;;
76380;SDS011;65202;52.520;10.528;2023-06-14T01:31:20;4.13;;;2.90;;
76380;SDS011;65202;52.520;10.528;2023-06-14T01:33:49;7.75;;;3.20;;
76380;SDS011;65202;52.520;10.528;2023-06-14T01:36:19;6.80;;;3.00;;
76380;SDS011;65202;52.520;10.528;2023-06-14T01:38:47;7.38;;;3.15;;
76380;SDS011;65202;52.520;10.528;2023-06-14T01:41:17;4.93;;;2.92;;
76380;SDS011;65202;52.520;10.528;2023-06-14T01:43:48;5.10;;;3.03;;
76380;SDS011;65202;52.520;10.528;2023-06-14T01:46:16;8.23;;;2.85;;
76380;SDS011;65202;52.520;10.528;2023-06-14T01:48:44;5.25;;;3.10;;
76380;SDS011;65202;52.520;10.528;2023-06-14T01:51:12;6.00;;;3.05;;
76380;SDS011;65202;52.520;10.528;2023-06-14T01:53:39;6.22;;;3.05;;
76380;SDS011;65202;52.520;10.528;2023-06-14T01:56:06;7.25;;;3.13;;
76380;SDS011;65202;52.520;10.528;2023-06-14T01:58:34;10.73;;;3.20;;
76380;SDS011;65202;52.520;10.528;2023-06-14T02:01:02;10.15;;;3.17;;
76380;SDS011;65202;52.520;10.528;2023-06-14T02:03:30;6.68;;;2.75;;
76380;SDS011;65202;52.520;10.528;2023-06-14T02:05:57;7.80;;;2.95;;
76380;SDS011;65202;52.520;10.528;2023-06-14T02:08:24;8.65;;;3.08;;
76380;SDS011;65202;52.520;10.528;2023-06-14T02:10:52;5.47;;;3.13;;
76380;SDS011;65202;52.520;10.528;2023-06-14T02:13:19;8.15;;;3.17;;
76380;SDS011;65202;52.520;10.528;2023-06-14T02:15:46;7.90;;;2.90;;
76380;SDS011;65202;52.520;10.528;2023-06-14T02:18:17;4.95;;;3.08;;
76380;SDS011;65202;52.520;10.528;2023-06-14T02:20:45;6.68;;;3.30;;
76380;SDS011;65202;52.520;10.528;2023-06-14T02:23:12;4.97;;;3.17;;
76380;SDS011;65202;52.520;10.528;2023-06-14T02:25:40;4.47;;;3.15;;
76380;SDS011;65202;52.520;10.528;2023-06-14T02:28:07;4.68;;;3.10;;
76380;SDS011;65202;52.520;10.528;2023-06-14T02:30:35;7.18;;;3.17;;
76380;SDS011;65202;52.520;10.528;2023-06-14T02:33:02;7.32;;;2.95;;
76380;SDS011;65202;52.520;10.528;2023-06-14T02:35:30;4.90;;;3.30;;
76380;SDS011;65202;52.520;10.528;2023-06-14T02:37:57;9.35;;;3.40;;
76380;SDS011;65202;52.520;10.528;2023-06-14T02:40:25;5.68;;;3.30;;
76380;SDS011;65202;52.520;10.528;2023-06-14T02:42:52;5.65;;;3.45;;
76380;SDS011;65202;52.520;10.528;2023-06-14T02:45:19;8.02;;;3.00;;
76380;SDS011;65202;52.520;10.528;2023-06-14T02:47:48;9.57;;;3.45;;
76380;SDS011;65202;52.520;10.528;2023-06-14T02:50:15;6.28;;;3.17;;
76380;SDS011;65202;52.520;10.528;2023-06-14T02:52:43;5.43;;;3.13;;
76380;SDS011;65202;52.520;10.528;2023-06-14T02:55:12;9.43;;;3.10;;
76380;SDS011;65202;52.520;10.528;2023-06-14T02:57:39;10.18;;;3.38;;
76380;SDS011;65202;52.520;10.528;2023-06-14T03:00:06;6.35;;;3.30;;
76380;SDS011;65202;52.520;10.528;2023-06-14T03:02:41;10.55;;;3.10;;
76380;SDS011;65202;52.520;10.528;2023-06-14T03:05:09;10.35;;;3.33;;
76380;SDS011;65202;52.520;10.528;2023-06-14T03:07:36;6.45;;;3.50;;
76380;SDS011;65202;52.520;10.528;2023-06-14T03:10:08;8.50;;;3.38;;
76380;SDS011;65202;52.520;10.528;2023-06-14T03:12:40;8.80;;;3.30;;
76380;SDS011;65202;52.520;10.528;2023-06-14T03:15:08;8.50;;;3.30;;
76380;SDS011;65202;52.520;10.528;2023-06-14T03:17:36;7.90;;;3.20;;
76380;SDS011;65202;52.520;10.528;2023-06-14T03:20:06;6.43;;;3.58;;
76380;SDS011;65202;52.520;10.528;2023-06-14T03:22:35;10.10;;;3.33;;
76380;SDS011;65202;52.520;10.528;2023-06-14T03:25:02;9.27;;;3.60;;
76380;SDS011;65202;52.520;10.528;2023-06-14T03:27:31;7.32;;;3.63;;
76380;SDS011;65202;52.520;10.528;2023-06-14T03:29:58;8.82;;;3.25;;
76380;SDS011;65202;52.520;10.528;2023-06-14T03:32:25;10.38;;;3.40;;
76380;SDS011;65202;52.520;10.528;2023-06-14T03:34:52;8.68;;;3.85;;
76380;SDS011;65202;52.520;10.528;2023-06-14T03:37:20;5.15;;;3.47;;
76380;SDS011;65202;52.520;10.528;2023-06-14T03:39:48;6.30;;;3.70;;
76380;SDS011;65202;52.520;10.528;2023-06-14T03:42:15;6.80;;;3.60;;
76380;SDS011;65202;52.520;10.528;2023-06-14T03:44:42;16.27;;;3.72;;
76380;SDS011;65202;52.520;10.528;2023-06-14T03:47:11;7.38;;;3.65;;
76380;SDS011;65202;52.520;10.528;2023-06-14T03:49:38;8.27;;;3.80;;
76380;SDS011;65202;52.520;10.528;2023-06-14T03:52:05;8.18;;;3.70;;
76380;SDS011;65202;52.520;10.528;2023-06-14T03:54:33;9.88;;;3.50;;
76380;SDS011;65202;52.520;10.528;2023-06-14T03:57:03;8.35;;;3.80;;
76380;SDS011;65202;52.520;10.528;2023-06-14T03:59:31;9.57;;;3.95;;
76380;SDS011;65202;52.520;10.528;2023-06-14T04:01:59;9.35;;;3.53;;
76380;SDS011;65202;52.520;10.528;2023-06-14T04:04:26;7.35;;;3.30;;
76380;SDS011;65202;52.520;10.528;2023-06-14T04:06:56;6.75;;;3.55;;
76380;SDS011;65202;52.520;10.528;2023-06-14T04:09:25;8.82;;;3.70;;
76380;SDS011;65202;52.520;10.528;2023-06-14T04:11:52;10.52;;;3.50;;
76380;SDS011;65202;52.520;10.528;2023-06-14T04:14:20;10.45;;;3.60;;
76380;SDS011;65202;52.520;10.528;2023-06-14T04:16:47;7.70;;;3.58;;
76380;SDS011;65202;52.520;10.528;2023-06-14T04:19:16;6.38;;;3.80;;
76380;SDS011;65202;52.520;10.528;2023-06-14T04:21:43;7.80;;;3.90;;
76380;SDS011;65202;52.520;10.528;2023-06-14T04:24:10;10.43;;;4.15;;
76380;SDS011;65202;52.520;10.528;2023-06-14T04:26:43;7.00;;;3.90;;
76380;SDS011;65202;52.520;10.528;2023-06-14T04:29:12;10.75;;;3.90;;
76380;SDS011;65202;52.520;10.528;2023-06-14T04:31:43;6.15;;;3.72;;
76380;SDS011;65202;52.520;10.528;2023-06-14T04:34:11;7.97;;;3.72;;
76380;SDS011;65202;52.520;10.528;2023-06-14T04:36:45;7.40;;;3.85;;
76380;SDS011;65202;52.520;10.528;2023-06-14T04:39:20;5.70;;;3.63;;
76380;SDS011;65202;52.520;10.528;2023-06-14T04:41:48;10.50;;;3.78;;
76380;SDS011;65202;52.520;10.528;2023-06-14T04:44:19;9.60;;;3.88;;
76380;SDS011;65202;52.520;10.528;2023-06-14T04:46:47;5.38;;;3.65;;
76380;SDS011;65202;52.520;10.528;2023-06-14T04:49:14;6.13;;;3.97;;
76380;SDS011;65202;52.520;10.528;2023-06-14T04:51:42;7.45;;;3.95;;
76380;SDS011;65202;52.520;10.528;2023-06-14T04:54:11;6.97;;;3.60;;
76380;SDS011;65202;52.520;10.528;2023-06-14T04:56:42;8.80;;;4.00;;
76380;SDS011;65202;52.520;10.528;2023-06-14T04:59:09;7.25;;;3.90;;
76380;SDS011;65202;52.520;10.528;2023-06-14T05:01:38;6.85;;;3.78;;
76380;SDS011;65202;52.520;10.528;2023-06-14T05:04:06;8.77;;;3.88;;
76380;SDS011;65202;52.520;10.528;2023-06-14T05:06:33;8.77;;;4.15;;
76380;SDS011;65202;52.520;10.528;2023-06-14T05:09:00;6.13;;;4.03;;
76380;SDS011;65202;52.520;10.528;2023-06-14T05:11:27;6.10;;;4.00;;
76380;SDS011;65202;52.520;10.528;2023-06-14T05:13:55;8.07;;;4.20;;
76380;SDS011;65202;52.520;10.528;2023-06-14T05:16:22;6.70;;;3.67;;
76380;SDS011;65202;52.520;10.528;2023-06-14T05:18:49;6.95;;;4.00;;
76380;SDS011;65202;52.520;10.528;2023-06-14T05:21:17;7.72;;;3.80;;
76380;SDS011;65202;52.520;10.528;2023-06-14T05:23:45;6.43;;;3.70;;
76380;SDS011;65202;52.520;10.528;2023-06-14T05:26:12;6.40;;;3.50;;
76380;SDS011;65202;52.520;10.528;2023-06-14T05:28:40;6.50;;;3.50;;
76380;SDS011;65202;52.520;10.528;2023-06-14T05:31:07;12.05;;;4.05;;
76380;SDS011;65202;52.520;10.528;2023-06-14T05:33:35;7.72;;;3.70;;
76380;SDS011;65202;52.520;10.528;2023-06-14T05:36:02;8.65;;;3.58;;
76380;SDS011;65202;52.520;10.528;2023-06-14T05:38:31;8.40;;;3.67;;
76380;SDS011;65202;52.520;10.528;2023-06-14T05:40:58;5.75;;;3.58;;
76380;SDS011;65202;52.520;10.528;2023-06-14T05:43:26;8.35;;;5.95;;
76380;SDS011;65202;52.520;10.528;2023-06-14T05:45:53;8.57;;;4.22;;
76380;SDS011;65202;52.520;10.528;2023-06-14T05:48:20;10.52;;;6.32;;
76380;SDS011;65202;52.520;10.528;2023-06-14T05:50:48;10.65;;;4.57;;
76380;SDS011;65202;52.520;10.528;2023-06-14T05:53:15;8.23;;;4.40;;
76380;SDS011;65202;52.520;10.528;2023-06-14T05:55:42;11.77;;;4.75;;
76380;SDS011;65202;52.520;10.528;2023-06-14T05:58:09;9.15;;;4.30;;
76380;SDS011;65202;52.520;10.528;2023-06-14T06:00:37;6.00;;;3.72;;
76380;SDS011;65202;52.520;10.528;2023-06-14T06:03:04;4.40;;;3.80;;
76380;SDS011;65202;52.520;10.528;2023-06-14T06:05:35;6.80;;;3.80;;
76380;SDS011;65202;52.520;10.528;2023-06-14T06:08:02;7.72;;;3.72;;
76380;SDS011;65202;52.520;10.528;2023-06-14T06:10:29;11.02;;;4.10;;
76380;SDS011;65202;52.520;10.528;2023-06-14T06:12:56;5.55;;;3.88;;
76380;SDS011;65202;52.520;10.528;2023-06-14T06:15:23;4.22;;;3.78;;
76380;SDS011;65202;52.520;10.528;2023-06-14T06:17:51;5.75;;;3.50;;
76380;SDS011;65202;52.520;10.528;2023-06-14T06:20:23;6.22;;;3.88;;
76380;SDS011;65202;52.520;10.528;2023-06-14T06:22:59;4.90;;;3.80;;
76380;SDS011;65202;52.520;10.528;2023-06-14T06:25:26;5.35;;;3.40;;
76380;SDS011;65202;52.520;10.528;2023-06-14T06:27:54;6.88;;;3.70;;
76380;SDS011;65202;52.520;10.528;2023-06-14T06:30:25;4.65;;;3.33;;
76380;SDS011;65202;52.520;10.528;2023-06-14T06:32:52;5.90;;;3.63;;
76380;SDS011;65202;52.520;10.528;2023-06-14T06:35:20;10.43;;;3.47;;
76380;SDS011;65202;52.520;10.528;2023-06-14T06:37:47;7.93;;;3.35;;
76380;SDS011;65202;52.520;10.528;2023-06-14T06:40:14;9.60;;;3.65;;
76380;SDS011;65202;52.520;10.528;2023-06-14T06:42:42;4.82;;;3.38;;
76380;SDS011;65202;52.520;10.528;2023-06-14T06:45:09;4.30;;;3.60;;
76380;SDS011;65202;52.520;10.528;2023-06-14T06:47:37;4.97;;;3.38;;
76380;SDS011;65202;52.520;10.528;2023-06-14T06:50:04;3.55;;;2.90;;
76380;SDS011;65202;52.520;10.528;2023-06-14T06:52:34;5.22;;;2.95;;
76380;SDS011;65202;52.520;10.528;2023-06-14T06:55:02;4.00;;;3.03;;
76380;SDS011;65202;52.520;10.528;2023-06-14T06:57:30;6.13;;;3.10;;
76380;SDS011;65202;52.520;10.528;2023-06-14T06:59:57;3.78;;;2.83;;
76380;SDS011;65202;52.520;10.528;2023-06-14T07:02:24;4.13;;;2.50;;
76380;SDS011;65202;52.520;10.528;2023-06-14T07:04:51;4.97;;;3.33;;
76380;SDS011;65202;52.520;10.528;2023-06-14T07:07:19;2.85;;;2.63;;
76380;SDS011;65202;52.520;10.528;2023-06-14T07:09:46;4.88;;;2.42;;
76380;SDS011;65202;52.520;10.528;2023-06-14T07:12:14;4.65;;;2.88;;
76380;SDS011;65202;52.520;10.528;2023-06-14T07:14:41;5.35;;;2.95;;
76380;SDS011;65202;52.520;10.528;2023-06-14T07:17:08;6.07;;;3.05;;
76380;SDS011;65202;52.520;10.528;2023-06-14T07:19:35;4.05;;;2.72;;
76380;SDS011;65202;52.520;10.528;2023-06-14T07:22:02;2.75;;;2.50;;
76380;SDS011;65202;52.520;10.528;2023-06-14T07:24:30;5.57;;;2.85;;
76380;SDS011;65202;52.520;10.528;2023-06-14T07:26:57;3.88;;;2.92;;
76380;SDS011;65202;52.520;10.528;2023-06-14T07:29:25;7.40;;;3.28;;
76380;SDS011;65202;52.520;10.528;2023-06-14T07:31:53;3.67;;;3.13;;
76380;SDS011;65202;52.520;10.528;2023-06-14T07:34:20;5.32;;;3.40;;
76380;SDS011;65202;52.520;10.528;2023-06-14T07:36:47;15.23;;;3.60;;
76380;SDS011;65202;52.520;10.528;2023-06-14T07:39:14;4.25;;;3.25;;
76380;SDS011;65202;52.520;10.528;2023-06-14T07:41:42;6.47;;;3.42;;
76380;SDS011;65202;52.520;10.528;2023-06-14T07:44:09;4.15;;;3.50;;
76380;SDS011;65202;52.520;10.528;2023-06-14T07:46:37;5.72;;;3.30;;
76380;SDS011;65202;52.520;10.528;2023-06-14T07:49:05;5.38;;;3.47;;
76380;SDS011;65202;52.520;10.528;2023-06-14T07:51:33;4.25;;;3.50;;
76380;SDS011;65202;52.520;10.528;2023-06-14T07:54:00;3.95;;;3.20;;
76380;SDS011;65202;52.520;10.528;2023-06-14T07:56:28;5.20;;;3.15;;
76380;SDS011;65202;52.520;10.528;2023-06-14T07:58:56;6.57;;;3.28;;
76380;SDS011;65202;52.520;10.528;2023-06-14T08:01:23;5.97;;;2.78;;
76380;SDS011;65202;52.520;10.528;2023-06-14T08:03:52;18.30;;;3.40;;
76380;SDS011;65202;52.520;10.528;2023-06-14T08:06:19;16.83;;;3.42;;
76380;SDS011;65202;52.520;10.528;2023-06-14T08:08:47;6.82;;;2.90;;
76380;SDS011;65202;52.520;10.528;2023-06-14T08:11:14;3.55;;;2.90;;
76380;SDS011;65202;52.520;10.528;2023-06-14T08:13:41;5.45;;;2.90;;
76380;SDS011;65202;52.520;10.528;2023-06-14T08:16:09;5.88;;;2.90;;
76380;SDS011;65202;52.520;10.528;2023-06-14T08:18:37;5.97;;;3.22;;
76380;SDS011;65202;52.520;10.528;2023-06-14T08:21:04;8.20;;;3.20;;
76380;SDS011;65202;52.520;10.528;2023-06-14T08:23:31;4.72;;;3.00;;
76380;SDS011;65202;52.520;10.528;2023-06-14T08:25:59;4.82;;;2.85;;
76380;SDS011;65202;52.520;10.528;2023-06-14T08:28:28;30.38;;;4.30;;
76380;SDS011;65202;52.520;10.528;2023-06-14T08:30:55;3.17;;;2.88;;
76380;SDS011;65202;52.520;10.528;2023-06-14T08:33:22;3.22;;;2.75;;
76380;SDS011;65202;52.520;10.528;2023-06-14T08:35:50;6.40;;;2.78;;
76380;SDS011;65202;52.520;10.528;2023-06-14T08:38:17;8.75;;;2.90;;
76380;SDS011;65202;52.520;10.528;2023-06-14T08:40:45;3.58;;;2.58;;
76380;SDS011;65202;52.520;10.528;2023-06-14T08:43:18;7.85;;;2.90;;
76380;SDS011;65202;52.520;10.528;2023-06-14T08:45:46;11.35;;;2.92;;
76380;SDS011;65202;52.520;10.528;2023-06-14T08:48:18;6.20;;;3.03;;
76380;SDS011;65202;52.520;10.528;2023-06-14T08:50:47;3.53;;;2.78;;
76380;SDS011;65202;52.520;10.528;2023-06-14T08:53:17;3.95;;;2.85;;
76380;SDS011;65202;52.520;10.528;2023-06-14T08:55:46;10.73;;;2.80;;
76380;SDS011;65202;52.520;10.528;2023-06-14T08:58:14;4.97;;;2.95;;
76380;SDS011;65202;52.520;10.528;2023-06-14T09:00:42;6.03;;;2.50;;
76380;SDS011;65202;52.520;10.528;2023-06-14T09:03:09;5.07;;;2.90;;
76380;SDS011;65202;52.520;10.528;2023-06-14T09:05:40;6.53;;;2.75;;
76380;SDS011;65202;52.520;10.528;2023-06-14T09:08:07;5.85;;;2.60;;
76380;SDS011;65202;52.520;10.528;2023-06-14T09:10:34;5.80;;;2.78;;
76380;SDS011;65202;52.520;10.528;2023-06-14T09:13:05;4.78;;;2.63;;
76380;SDS011;65202;52.520;10.528;2023-06-14T09:15:32;4.07;;;2.88;;
76380;SDS011;65202;52.520;10.528;2023-06-14T09:18:02;4.80;;;2.80;;
76380;SDS011;65202;52.520;10.528;2023-06-14T09:20:30;6.55;;;2.78;;
76380;SDS011;65202;52.520;10.528;2023-06-14T09:22:58;6.18;;;3.00;;
76380;SDS011;65202;52.520;10.528;2023-06-14T09:25:27;5.88;;;3.03;;
76380;SDS011;65202;52.520;10.528;2023-06-14T09:28:06;4.50;;;3.08;;
76380;SDS011;65202;52.520;10.528;2023-06-14T09:30:36;4.60;;;2.70;;
76380;SDS011;65202;52.520;10.528;2023-06-14T09:33:06;10.13;;;3.05;;
76380;SDS011;65202;52.520;10.528;2023-06-14T09:35:34;4.13;;;2.90;;
76380;SDS011;65202;52.520;10.528;2023-06-14T09:38:02;5.68;;;3.15;;
76380;SDS011;65202;52.520;10.528;2023-06-14T09:40:33;3.83;;;3.20;;
76380;SDS011;65202;52.520;10.528;2023-06-14T09:43:04;6.50;;;3.33;;
76380;SDS011;65202;52.520;10.528;2023-06-14T09:45:37;6.40;;;3.33;;
76380;SDS011;65202;52.520;10.528;2023-06-14T09:48:07;8.02;;;3.40;;
76380;SDS011;65202;52.520;10.528;2023-06-14T09:50:35;5.82;;;3.25;;
76380;SDS011;65202;52.520;10.528;2023-06-14T09:53:05;7.50;;;3.38;;
76380;SDS011;65202;52.520;10.528;2023-06-14T09:55:36;5.55;;;3.60;;
76380;SDS011;65202;52.520;10.528;2023-06-14T09:58:05;8.15;;;3.45;;
76380;SDS011;65202;52.520;10.528;2023-06-14T10:00:35;7.88;;;3.60;;
76380;SDS011;65202;52.520;10.528;2023-06-14T10:03:11;9.05;;;3.47;;
76380;SDS011;65202;52.520;10.528;2023-06-14T10:05:47;8.18;;;3.70;;
76380;SDS011;65202;52.520;10.528;2023-06-14T10:08:18;8.52;;;4.00;;
76380;SDS011;65202;52.520;10.528;2023-06-14T10:10:53;9.25;;;4.05;;
76380;SDS011;65202;52.520;10.528;2023-06-14T10:13:22;7.90;;;4.43;;
76380;SDS011;65202;52.520;10.528;2023-06-14T10:18:38;6.18;;;4.05;;
76380;SDS011;65202;52.520;10.528;2023-06-14T10:21:57;8.93;;;4.15;;
76380;SDS011;65202;52.520;10.528;2023-06-14T10:24:35;10.55;;;4.47;;
76380;SDS011;65202;52.520;10.528;2023-06-14T10:27:09;12.00;;;4.35;;
76380;SDS011;65202;52.520;10.528;2023-06-14T10:30:01;5.70;;;3.85;;
76380;SDS011;65202;52.520;10.528;2023-06-14T10:32:24;6.13;;;3.80;;
76380;SDS011;65202;52.520;10.528;2023-06-14T10:34:56;8.50;;;4.22;;
76380;SDS011;65202;52.520;10.528;2023-06-14T10:37:25;8.52;;;4.32;;
76380;SDS011;65202;52.520;10.528;2023-06-14T10:39:53;5.82;;;4.32;;
76380;SDS011;65202;52.520;10.528;2023-06-14T10:42:20;9.65;;;4.05;;
76380;SDS011;65202;52.520;10.528;2023-06-14T10:44:50;8.98;;;4.18;;
76380;SDS011;65202;52.520;10.528;2023-06-14T10:47:31;11.07;;;3.90;;
76380;SDS011;65202;52.520;10.528;2023-06-14T10:52:33;8.93;;;3.88;;
76380;SDS011;65202;52.520;10.528;2023-06-14T10:55:06;8.93;;;4.18;;
76380;SDS011;65202;52.520;10.528;2023-06-14T10:57:46;6.85;;;3.95;;
76380;SDS011;65202;52.520;10.528;2023-06-14T11:00:28;13.38;;;4.05;;
76380;SDS011;65202;52.520;10.528;2023-06-14T11:11:23;13.18;;;5.35;;
76380;SDS011;65202;52.520;10.528;2023-06-14T11:14:00;9.00;;;4.07;;
76380;SDS011;65202;52.520;10.528;2023-06-14T11:16:29;16.65;;;4.70;;
76380;SDS011;65202;52.520;10.528;2023-06-14T11:19:00;13.68;;;3.83;;
76380;SDS011;65202;52.520;10.528;2023-06-14T11:21:31;11.68;;;4.13;;
76380;SDS011;65202;52.520;10.528;2023-06-14T11:24:00;7.38;;;3.80;;
76380;SDS011;65202;52.520;10.528;2023-06-14T11:26:30;9.65;;;3.97;;
76380;SDS011;65202;52.520;10.528;2023-06-14T11:29:01;13.55;;;4.03;;
76380;SDS011;65202;52.520;10.528;2023-06-14T11:31:28;9.93;;;3.60;;
76380;SDS011;65202;52.520;10.528;2023-06-14T11:33:57;5.88;;;3.80;;
76380;SDS011;65202;52.520;10.528;2023-06-14T11:36:27;9.35;;;3.90;;
76380;SDS011;65202;52.520;10.528;2023-06-14T11:39:04;11.40;;;4.50;;
76380;SDS011;65202;52.520;10.528;2023-06-14T11:41:37;10.68;;;3.97;;
76380;SDS011;65202;52.520;10.528;2023-06-14T11:44:12;11.02;;;4.07;;
76380;SDS011;65202;52.520;10.528;2023-06-14T11:46:39;8.23;;;3.72;;
76380;SDS011;65202;52.520;10.528;2023-06-14T11:49:07;7.40;;;3.85;;
76380;SDS011;65202;52.520;10.528;2023-06-14T11:51:36;6.30;;;3.78;;
76380;SDS011;65202;52.520;10.528;2023-06-14T11:54:04;14.50;;;3.85;;
76380;SDS011;65202;52.520;10.528;2023-06-14T11:56:33;14.38;;;4.07;;
76380;SDS011;65202;52.520;10.528;2023-06-14T11:59:02;6.82;;;3.70;;
76380;SDS011;65202;52.520;10.528;2023-06-14T12:01:35;9.40;;;3.90;;
76380;SDS011;65202;52.520;10.528;2023-06-14T12:04:05;12.55;;;4.07;;
76380;SDS011;65202;52.520;10.528;2023-06-14T12:06:33;8.52;;;3.28;;
76380;SDS011;65202;52.520;10.528;2023-06-14T12:09:03;9.35;;;3.95;;
76380;SDS011;65202;52.520;10.528;2023-06-14T12:11:34;6.88;;;3.72;;
76380;SDS011;65202;52.520;10.528;2023-06-14T12:14:03;11.30;;;4.28;;
76380;SDS011;65202;52.520;10.528;2023-06-14T12:16:36;8.75;;;3.72;;
76380;SDS011;65202;52.520;10.528;2023-06-14T12:19:08;8.33;;;3.90;;
76380;SDS011;65202;52.520;10.528;2023-06-14T12:21:47;6.50;;;3.97;;
76380;SDS011;65202;52.520;10.528;2023-06-14T12:24:16;13.47;;;4.70;;
76380;SDS011;65202;52.520;10.528;2023-06-14T12:26:43;8.43;;;3.83;;
76380;SDS011;65202;52.520;10.528;2023-06-14T12:29:10;9.90;;;4.30;;
76380;SDS011;65202;52.520;10.528;2023-06-14T12:31:40;14.23;;;4.00;;
76380;SDS011;65202;52.520;10.528;2023-06-14T12:34:08;7.20;;;4.10;;
76380;SDS011;65202;52.520;10.528;2023-06-14T12:36:35;7.28;;;4.00;;
76380;SDS011;65202;52.520;10.528;2023-06-14T12:39:07;7.90;;;4.03;;
76380;SDS011;65202;52.520;10.528;2023-06-14T12:41:36;9.65;;;3.70;;
76380;SDS011;65202;52.520;10.528;2023-06-14T12:44:04;6.30;;;3.55;;
76380;SDS011;65202;52.520;10.528;2023-06-14T12:46:31;13.02;;;4.05;;
76380;SDS011;65202;52.520;10.528;2023-06-14T12:49:00;13.05;;;3.78;;
76380;SDS011;65202;52.520;10.528;2023-06-14T12:51:28;6.72;;;2.92;;
76380;SDS011;65202;52.520;10.528;2023-06-14T12:53:55;19.40;;;3.65;;
76380;SDS011;65202;52.520;10.528;2023-06-14T12:56:22;7.38;;;4.07;;
76380;SDS011;65202;52.520;10.528;2023-06-14T12:58:51;10.32;;;3.97;;
76380;SDS011;65202;52.520;10.528;2023-06-14T13:01:18;10.68;;;4.05;;
76380;SDS011;65202;52.520;10.528;2023-06-14T13:03:46;8.40;;;4.00;;
76380;SDS011;65202;52.520;10.528;2023-06-14T13:06:14;6.93;;;3.78;;
76380;SDS011;65202;52.520;10.528;2023-06-14T13:08:41;8.75;;;4.35;;
76380;SDS011;65202;52.520;10.528;2023-06-14T13:11:09;13.02;;;3.85;;
76380;SDS011;65202;52.520;10.528;2023-06-14T13:13:36;8.88;;;4.22;;
76380;SDS011;65202;52.520;10.528;2023-06-14T13:16:03;19.63;;;4.30;;
76380;SDS011;65202;52.520;10.528;2023-06-14T13:18:30;10.48;;;3.88;;
76380;SDS011;65202;52.520;10.528;2023-06-14T13:20:58;8.98;;;4.28;;
76380;SDS011;65202;52.520;10.528;2023-06-14T13:23:25;7.22;;;3.90;;
76380;SDS011;65202;52.520;10.528;2023-06-14T13:25:52;7.80;;;3.90;;
76380;SDS011;65202;52.520;10.528;2023-06-14T13:28:20;9.52;;;4.00;;
76380;SDS011;65202;52.520;10.528;2023-06-14T13:30:47;8.80;;;4.10;;
76380;SDS011;65202;52.520;10.528;2023-06-14T13:33:15;8.55;;;3.90;;
76380;SDS011;65202;52.520;10.528;2023-06-14T13:35:42;9.85;;;3.95;;
76380;SDS011;65202;52.520;10.528;2023-06-14T13:38:09;7.50;;;4.20;;
76380;SDS011;65202;52.520;10.528;2023-06-14T13:40:38;9.57;;;4.00;;
76380;SDS011;65202;52.520;10.528;2023-06-14T13:43:06;13.23;;;4.40;;
76380;SDS011;65202;52.520;10.528;2023-06-14T13:45:33;7.30;;;3.47;;
76380;SDS011;65202;52.520;10.528;2023-06-14T13:48:02;8.68;;;3.83;;
76380;SDS011;65202;52.520;10.528;2023-06-14T13:50:29;10.48;;;3.92;;
76380;SDS011;65202;52.520;10.528;2023-06-14T13:52:57;13.15;;;4.35;;
76380;SDS011;65202;52.520;10.528;2023-06-14T13:55:24;10.38;;;3.95;;
76380;SDS011;65202;52.520;10.528;2023-06-14T13:57:51;8.20;;;4.00;;
76380;SDS011;65202;52.520;10.528;2023-06-14T14:00:19;7.97;;;3.80;;
76380;SDS011;65202;52.520;10.528;2023-06-14T14:02:49;7.47;;;3.70;;
76380;SDS011;65202;52.520;10.528;2023-06-14T14:05:17;15.35;;;4.50;;
76380;SDS011;65202;52.520;10.528;2023-06-14T14:07:45;10.88;;;3.88;;
76380;SDS011;65202;52.520;10.528;2023-06-14T14:10:12;10.20;;;4.20;;
76380;SDS011;65202;52.520;10.528;2023-06-14T14:12:42;10.07;;;3.90;;
76380;SDS011;65202;52.520;10.528;2023-06-14T14:15:10;9.20;;;3.90;;
76380;SDS011;65202;52.520;10.528;2023-06-14T14:17:40;15.00;;;4.00;;
76380;SDS011;65202;52.520;10.528;2023-06-14T14:20:08;9.32;;;4.13;;
76380;SDS011;65202;52.520;10.528;2023-06-14T14:22:36;12.63;;;4.45;;
76380;SDS011;65202;52.520;10.528;2023-06-14T14:25:03;6.97;;;4.25;;
76380;SDS011;65202;52.520;10.528;2023-06-14T14:27:31;11.98;;;4.22;;
76380;SDS011;65202;52.520;10.528;2023-06-14T14:29:58;5.97;;;4.15;;
76380;SDS011;65202;52.520;10.528;2023-06-14T14:32:25;9.15;;;4.00;;
76380;SDS011;65202;52.520;10.528;2023-06-14T14:34:53;7.32;;;4.20;;
76380;SDS011;65202;52.520;10.528;2023-06-14T14:37:20;7.07;;;3.90;;
76380;SDS011;65202;52.520;10.528;2023-06-14T14:39:47;10.70;;;4.10;;
76380;SDS011;65202;52.520;10.528;2023-06-14T14:42:14;12.82;;;4.07;;
76380;SDS011;65202;52.520;10.528;2023-06-14T14:44:42;15.38;;;4.10;;
76380;SDS011;65202;52.520;10.528;2023-06-14T14:47:09;14.32;;;4.22;;
76380;SDS011;65202;52.520;10.528;2023-06-14T14:49:36;12.35;;;4.32;;
76380;SDS011;65202;52.520;10.528;2023-06-14T14:52:03;12.35;;;4.95;;
76380;SDS011;65202;52.520;10.528;2023-06-14T14:54:49;12.82;;;4.22;;